createdAt,value
2022-11-12T00:01:22.935Z,78.08
2022-11-12T00:06:43.251Z,78.03
2022-11-12T00:12:03.717Z,77.88
2022-11-12T00:17:24.100Z,78.17
2022-11-12T00:22:44.364Z,79.16
2022-11-12T00:28:09.208Z,79.48
2022-11-12T00:33:29.726Z,79.33
2022-11-12T00:38:50.174Z,79.29
2022-11-12T00:44:10.982Z,79.37
2022-11-12T00:49:31.561Z,79.70
2022-11-12T00:54:52.401Z,79.44
2022-11-12T01:00:17.044Z,79.55
2022-11-12T01:05:37.389Z,79.18
2022-11-12T01:11:04.551Z,79.25
2022-11-12T01:16:27.927Z,79.21
2022-11-12T01:21:48.529Z,79.25
2022-11-12T01:27:09.133Z,79.46
2022-11-12T01:32:29.654Z,80.58
2022-11-12T01:37:50.182Z,81.65
2022-11-12T01:43:13.923Z,83.94
2022-11-12T01:48:58.631Z,86.83
2022-11-12T01:54:20.499Z,88.34
2022-11-12T01:59:44.381Z,90.49
2022-11-12T02:05:07.433Z,91.19
2022-11-12T02:10:27.989Z,90.78
2022-11-12T02:15:48.070Z,92.14
2022-11-12T02:21:09.684Z,92.47
2022-11-12T02:26:37.126Z,93.18
2022-11-12T02:31:57.549Z,93.70
2022-11-12T02:37:17.949Z,94.96
2022-11-12T02:42:38.254Z,94.07
2022-11-12T02:47:59.233Z,95.50
2022-11-12T02:53:19.934Z,95.32
2022-11-12T02:58:40.128Z,95.07
2022-11-12T03:04:01.136Z,95.29
2022-11-12T03:09:21.434Z,96.15
2022-11-12T03:14:42.197Z,96.84
2022-11-12T03:20:04.638Z,96.21
2022-11-12T03:25:26.321Z,96.33
2022-11-12T03:30:46.866Z,96.16
2022-11-12T03:36:07.272Z,96.19
2022-11-12T03:41:27.663Z,96.43
2022-11-12T03:46:48.111Z,97.57
2022-11-12T03:52:08.539Z,97.11
2022-11-12T03:57:28.989Z,97.59
2022-11-12T04:02:50.464Z,97.54
2022-11-12T04:08:37.808Z,97.48
2022-11-12T04:13:58.097Z,97.84
2022-11-12T04:19:37.143Z,98.82
2022-11-12T04:25:16.685Z,99.13
2022-11-12T04:30:37.253Z,99.40
2022-11-12T04:35:57.660Z,100.00
2022-11-12T04:41:36.720Z,100.00
2022-11-12T04:46:57.077Z,99.63
2022-11-12T04:52:17.526Z,99.90
2022-11-12T04:57:38.276Z,100.00
2022-11-12T05:02:58.730Z,99.68
2022-11-12T05:08:18.953Z,100.00
2022-11-12T05:13:39.586Z,99.68
2022-11-12T05:19:00.375Z,99.48
2022-11-12T05:24:40.357Z,99.22
2022-11-12T05:30:01.349Z,97.73
2022-11-12T05:35:22.015Z,98.45
2022-11-12T05:40:45.050Z,99.80
2022-11-12T05:46:05.710Z,98.57
2022-11-12T05:51:26.489Z,99.21
2022-11-12T05:56:47.321Z,98.09
2022-11-12T06:02:07.771Z,98.03
2022-11-12T06:07:28.156Z,98.09
2022-11-12T06:12:48.388Z,96.76
2022-11-12T06:18:08.974Z,96.63
2022-11-12T06:23:29.427Z,96.11
2022-11-12T06:28:50.324Z,95.38
2022-11-12T06:34:12.563Z,97.79
2022-11-12T06:39:33.078Z,98.15
2022-11-12T06:44:53.696Z,96.56
2022-11-12T06:50:13.945Z,98.71
2022-11-12T06:55:34.165Z,98.43
2022-11-12T07:00:54.283Z,98.58
2022-11-12T07:06:18.681Z,98.28
2022-11-12T07:11:39.333Z,98.79
2022-11-12T07:17:00.085Z,97.85
2022-11-12T07:22:20.311Z,98.17
2022-11-12T07:27:41.036Z,98.01
2022-11-12T07:33:01.682Z,98.40
2022-11-12T07:38:22.109Z,98.09
2022-11-12T07:43:45.877Z,98.99
2022-11-12T07:49:06.434Z,97.95
2022-11-12T07:54:26.964Z,99.23
2022-11-12T07:59:47.763Z,98.94
2022-11-12T08:05:14.493Z,98.72
2022-11-12T08:10:38.507Z,100.00
2022-11-12T08:15:59.331Z,100.00
2022-11-12T08:21:20.433Z,100.00
2022-11-12T08:26:41.148Z,100.00
2022-11-12T08:32:01.633Z,100.00
2022-11-12T08:37:21.906Z,100.00
2022-11-12T08:42:42.302Z,100.00
2022-11-12T08:48:05.832Z,100.00
2022-11-12T08:53:26.401Z,100.00
2022-11-12T08:58:47.009Z,100.00
2022-11-12T09:04:07.568Z,100.00
2022-11-12T09:09:28.311Z,100.00
2022-11-12T09:14:48.951Z,99.90
2022-11-12T09:20:09.704Z,100.00
2022-11-12T09:25:30.340Z,100.00
2022-11-12T09:30:52.132Z,100.00
2022-11-12T09:36:12.787Z,100.00
2022-11-12T09:41:42.919Z,99.09
2022-11-12T09:47:10.012Z,99.33
2022-11-12T09:52:31.135Z,98.15
2022-11-12T09:57:51.560Z,98.87
2022-11-12T10:03:25.115Z,99.57
2022-11-12T10:09:00.551Z,99.71
2022-11-12T10:14:44.179Z,99.60
2022-11-12T10:20:22.566Z,98.43
2022-11-12T10:25:45.134Z,96.88
2022-11-12T10:31:13.924Z,96.70
2022-11-12T10:36:36.359Z,96.00
2022-11-12T10:42:08.787Z,95.39
2022-11-12T10:47:33.848Z,93.79
2022-11-12T10:53:13.022Z,92.91
2022-11-12T10:58:33.405Z,93.23
2022-11-12T11:03:58.033Z,93.34
2022-11-12T11:09:21.770Z,92.05
2022-11-12T11:14:44.684Z,91.67
2022-11-12T11:20:11.888Z,89.26
2022-11-12T11:25:33.782Z,89.45
2022-11-12T11:31:03.842Z,87.37
2022-11-12T11:36:30.550Z,86.04
2022-11-12T11:41:59.727Z,84.13
2022-11-12T11:48:01.713Z,83.89
2022-11-12T11:53:42.178Z,77.78
2022-11-12T11:59:30.616Z,79.49
2022-11-12T12:04:57.070Z,78.47
2022-11-12T12:10:40.185Z,76.69
2022-11-12T12:16:09.660Z,77.18
2022-11-12T12:21:32.179Z,79.67
2022-11-12T12:26:58.276Z,77.77
2022-11-12T12:32:28.936Z,77.76
2022-11-12T12:38:16.556Z,75.07
2022-11-12T12:43:47.583Z,73.49
2022-11-12T12:49:13.831Z,72.04
2022-11-12T12:54:37.320Z,72.23
2022-11-12T13:00:31.290Z,71.39
2022-11-12T13:06:07.242Z,68.19
2022-11-12T13:12:06.937Z,66.05
2022-11-12T13:17:44.463Z,65.36
2022-11-12T13:23:09.676Z,66.31
2022-11-12T13:28:30.421Z,68.89
2022-11-12T13:33:50.841Z,66.19
2022-11-12T13:39:15.608Z,66.41
2022-11-12T13:44:36.380Z,65.21
2022-11-12T13:50:00.503Z,62.92
2022-11-12T13:55:22.252Z,65.04
2022-11-12T14:00:52.033Z,63.07
2022-11-12T14:06:19.360Z,62.67
2022-11-12T14:11:48.616Z,59.97
2022-11-12T14:17:32.012Z,62.92
2022-11-12T14:22:53.863Z,60.19
2022-11-12T14:28:36.633Z,62.99
2022-11-12T14:33:57.237Z,60.36
2022-11-12T14:39:18.005Z,60.82
2022-11-12T14:44:38.492Z,61.42
2022-11-12T14:49:58.897Z,61.41
2022-11-12T14:55:23.462Z,60.47
2022-11-12T15:00:45.754Z,59.71
2022-11-12T15:06:06.393Z,58.42
2022-11-12T15:11:36.590Z,58.33
2022-11-12T15:16:57.264Z,59.75
2022-11-12T15:22:22.092Z,62.00
2022-11-12T15:27:43.448Z,62.91
2022-11-12T15:33:13.777Z,61.02
2022-11-12T15:38:36.086Z,61.24
2022-11-12T15:43:57.060Z,61.66
2022-11-12T15:49:17.561Z,61.77
2022-11-12T15:54:41.060Z,61.81
2022-11-12T16:00:08.786Z,62.63
2022-11-12T16:05:29.608Z,62.92
2022-11-12T16:10:50.440Z,66.27
2022-11-12T16:16:12.244Z,72.57
2022-11-12T16:21:32.516Z,83.56
2022-11-12T16:26:53.790Z,88.71
2022-11-12T16:32:14.759Z,89.18
2022-11-12T16:37:38.708Z,84.37
2022-11-12T16:42:59.437Z,85.14
2022-11-12T16:48:22.006Z,84.54
2022-11-12T16:53:42.631Z,81.16
2022-11-12T16:59:04.379Z,80.27
2022-11-12T17:04:25.170Z,79.60
2022-11-12T17:09:45.636Z,78.20
2022-11-12T17:15:07.258Z,79.12
2022-11-12T17:20:27.390Z,83.00
2022-11-12T17:25:48.183Z,87.10
2022-11-12T17:31:14.135Z,87.47
2022-11-12T17:36:40.641Z,81.40
2022-11-12T17:42:04.028Z,83.78
2022-11-12T17:47:24.593Z,83.43
2022-11-12T17:52:44.792Z,79.14
2022-11-12T17:58:05.325Z,86.49
2022-11-12T18:03:26.151Z,87.70
2022-11-12T18:08:47.610Z,88.32
2022-11-12T18:14:09.014Z,92.14
2022-11-12T18:19:30.808Z,92.15
2022-11-12T18:24:52.890Z,92.41
2022-11-12T18:30:18.961Z,87.96
2022-11-12T18:35:39.719Z,90.45
2022-11-12T18:41:08.812Z,91.38
2022-11-12T18:46:29.264Z,91.38
2022-11-12T18:51:49.520Z,93.28
2022-11-12T18:57:10.022Z,91.41
2022-11-12T19:02:30.672Z,93.04
2022-11-12T19:07:53.836Z,94.10
2022-11-12T19:13:14.451Z,93.33
2022-11-12T19:18:34.963Z,93.80
2022-11-12T19:23:56.318Z,93.34
2022-11-12T19:29:16.945Z,94.71
2022-11-12T19:34:38.106Z,95.30
2022-11-12T19:39:58.287Z,95.10
2022-11-12T19:45:18.356Z,93.09
2022-11-12T19:50:38.482Z,94.41
2022-11-12T19:56:03.524Z,94.17
2022-11-12T20:01:24.577Z,93.08
2022-11-12T20:06:44.937Z,93.94
2022-11-12T20:12:06.341Z,94.70
2022-11-12T20:17:26.439Z,95.18
2022-11-12T20:22:47.101Z,94.38
2022-11-12T20:28:07.686Z,93.80
2022-11-12T20:33:28.554Z,94.35
2022-11-12T20:38:53.584Z,94.10
2022-11-12T20:44:14.375Z,93.68
2022-11-12T20:49:35.035Z,93.93
2022-11-12T20:54:55.486Z,93.79
2022-11-12T21:00:21.393Z,93.52
2022-11-12T21:05:44.585Z,93.04
2022-11-12T21:11:08.101Z,93.05
2022-11-12T21:16:28.813Z,92.35
2022-11-12T21:21:49.178Z,92.18
2022-11-12T21:27:11.667Z,92.24
2022-11-12T21:32:32.328Z,94.04
2022-11-12T21:37:52.976Z,91.90
2022-11-12T21:43:14.432Z,92.52
2022-11-12T21:48:35.191Z,91.10
2022-11-12T21:53:57.886Z,90.40
2022-11-12T21:59:18.161Z,89.71
2022-11-12T22:04:38.802Z,89.44
2022-11-12T22:09:59.120Z,88.87
2022-11-12T22:15:24.190Z,90.00
2022-11-12T22:20:56.059Z,90.38
2022-11-12T22:26:20.800Z,91.20
2022-11-12T22:31:41.462Z,90.99
2022-11-12T22:37:02.190Z,91.24
2022-11-12T22:42:22.905Z,91.97
2022-11-12T22:47:43.223Z,91.83
2022-11-12T22:53:03.770Z,92.20
2022-11-12T22:58:24.201Z,91.95
2022-11-12T23:03:45.116Z,91.70
2022-11-12T23:09:06.094Z,91.74
2022-11-12T23:14:26.235Z,91.80
2022-11-12T23:19:46.490Z,91.45
2022-11-12T23:25:07.634Z,91.78
2022-11-12T23:30:27.952Z,92.30
2022-11-12T23:35:48.455Z,92.60
2022-11-12T23:41:11.569Z,92.39
2022-11-12T23:46:31.953Z,92.32
2022-11-12T23:51:52.311Z,92.34
2022-11-12T23:57:12.914Z,92.40
